Time;durP1;ratioP1;P1;durP2;ratioP2;P2;SDS_P1;SDS_P2;PMS_P1;PMS_P2;Temp;Humidity;BMP_temperature;BMP_pressure;BME280_temperature;BME280_humidity;BME280_pressure;Samples;Min_cycle;Max_cycle;Signal;HPM_P1;HPM_P2
2023/12/18 00:01:12;;;;;;;;;15.33;15.33;;;;;6.60;74.22;103385.22;5062649;28;46384;-46
2023/12/18 00:03:38;;;;;;;;;13.33;12.33;;;;;6.61;74.26;103381.72;5060956;28;45473;-48
2023/12/18 00:06:03;;;;;;;;;18.33;13.67;;;;;6.61;74.48;103376.44;5058515;28;68191;-47
2023/12/18 00:08:29;;;;;;;;;18.67;16.00;;;;;6.59;74.53;103375.50;5062182;28;45323;-50
2023/12/18 00:10:54;;;;;;;;;17.33;16.67;;;;;6.43;74.96;103375.38;5058050;28;64211;-49
2023/12/18 00:13:19;;;;;;;;;21.00;13.67;;;;;6.34;74.70;103372.66;5054859;28;45609;-49
2023/12/18 00:15:45;;;;;;;;;17.33;12.00;;;;;6.34;74.89;103372.66;5058968;28;45457;-50
2023/12/18 00:18:10;;;;;;;;;15.67;12.67;;;;;6.36;74.88;103375.31;5059501;28;45527;-50
2023/12/18 00:20:35;;;;;;;;;15.67;13.33;;;;;6.33;74.90;103378.81;5062292;28;76001;-49
2023/12/18 00:23:01;;;;;;;;;16.33;11.00;;;;;6.33;74.45;103376.19;5060139;28;73241;-50
2023/12/18 00:25:27;;;;;;;;;13.33;10.67;;;;;6.34;74.45;103377.97;5055652;28;45379;-48
2023/12/18 00:27:52;;;;;;;;;11.00;10.00;;;;;6.32;74.51;103374.41;5057855;28;69275;-50
2023/12/18 00:30:17;;;;;;;;;15.33;11.00;;;;;6.34;74.13;103377.09;5064376;28;75684;-48
2023/12/18 00:32:42;;;;;;;;;16.67;13.00;;;;;6.34;74.01;103372.66;5059523;27;71236;-48
2023/12/18 00:35:08;;;;;;;;;11.33;9.33;;;;;6.36;74.27;103376.22;5059865;27;45323;-50
2023/12/18 00:37:33;;;;;;;;;13.67;10.00;;;;;6.40;74.09;103378.03;5057486;28;69440;-49
2023/12/18 00:39:58;;;;;;;;;17.67;13.67;;;;;6.43;74.23;103385.97;5057704;28;75084;-48
2023/12/18 00:42:24;;;;;;;;;13.33;12.00;;;;;6.44;73.93;103378.91;5055535;28;65556;-48
2023/12/18 00:44:49;;;;;;;;;12.67;12.67;;;;;6.43;74.17;103380.69;5058662;28;45699;-48
2023/12/18 00:47:15;;;;;;;;;13.33;10.67;;;;;6.47;74.07;103376.31;5058038;28;45562;-50
2023/12/18 00:49:40;;;;;;;;;12.00;10.00;;;;;6.48;73.93;103369.25;5057909;28;58771;-49
2023/12/18 00:52:05;;;;;;;;;10.33;2.67;;;;;6.45;73.88;103365.72;5057819;28;60810;-48
2023/12/18 00:54:31;;;;;;;;;13.33;12.00;;;;;6.45;73.96;103360.44;5086757;27;45550;-50
2023/12/18 00:56:56;;;;;;;;;12.00;11.33;;;;;6.44;73.38;103360.41;5057630;28;70583;-48
2023/12/18 00:59:21;;;;;;;;;17.00;11.67;;;;;6.41;73.72;103350.72;5059145;28;70966;-49
2023/12/18 01:01:47;;;;;;;;;14.00;13.00;;;;;6.39;73.85;103347.16;5056185;28;72511;-47
2023/12/18 01:04:12;;;;;;;;;12.67;10.33;;;;;6.39;73.52;103339.22;5057802;28;45359;-48
2023/12/18 01:06:38;;;;;;;;;10.33;8.67;;;;;6.39;73.70;103339.22;5059194;28;66931;-49
2023/12/18 01:09:03;;;;;;;;;15.00;11.00;;;;;6.37;73.72;103337.44;5061010;28;49570;-49
2023/12/18 01:11:28;;;;;;;;;16.00;12.00;;;;;6.30;73.66;103336.50;5056641;28;73750;-48
2023/12/18 01:13:54;;;;;;;;;19.00;15.00;;;;;6.27;73.80;103328.53;5052042;28;67438;-48
2023/12/18 01:16:19;;;;;;;;;10.33;9.67;;;;;6.25;73.44;103325.88;5056280;28;69193;-50
2023/12/18 01:18:45;;;;;;;;;10.00;8.33;;;;;6.26;73.66;103326.78;5061600;28;46408;-49
2023/12/18 01:21:12;;;;;;;;;14.00;11.00;;;;;6.24;73.72;103323.22;5063577;28;45456;-47
2023/12/18 01:23:38;;;;;;;;;11.33;9.00;;;;;6.25;73.73;103325.00;5059296;28;45271;-49
2023/12/18 01:26:03;;;;;;;;;16.00;13.00;;;;;6.25;73.57;103327.66;5061349;28;45510;-49
2023/12/18 01:28:28;;;;;;;;;13.67;13.33;;;;;6.20;73.88;103332.88;5067053;28;74038;-47
2023/12/18 01:30:53;;;;;;;;;9.33;5.67;;;;;6.12;73.35;103332.81;5060827;28;70267;-47
2023/12/18 01:33:19;;;;;;;;;13.33;10.00;;;;;6.03;73.79;103338.03;5060209;28;66913;-47
2023/12/18 01:35:44;;;;;;;;;14.67;10.67;;;;;6.04;73.88;103331.88;5059147;28;48502;-48
2023/12/18 01:38:09;;;;;;;;;9.33;9.33;;;;;6.04;74.06;103331.88;5066329;28;46284;-49
2023/12/18 01:40:35;;;;;;;;;13.33;12.67;;;;;6.04;74.02;103345.09;5061151;28;66738;-50
2023/12/18 01:43:00;;;;;;;;;15.00;9.00;;;;;5.99;74.04;103335.34;5061692;28;45369;-49
2023/12/18 01:45:26;;;;;;;;;10.67;9.67;;;;;5.99;73.93;103338.88;5060862;28;45443;-48
2023/12/18 01:47:51;;;;;;;;;8.33;2.67;;;;;6.01;73.87;103344.16;5060918;28;50085;-47
2023/12/18 01:50:16;;;;;;;;;17.33;9.00;;;;;6.02;74.24;103343.28;5060264;28;45465;-48
2023/12/18 01:52:42;;;;;;;;;10.33;9.67;;;;;6.05;73.93;103338.94;5061685;27;68148;-49
2023/12/18 01:55:09;;;;;;;;;14.33;12.33;;;;;6.04;73.64;103349.50;5061636;28;69444;-50
2023/12/18 01:57:35;;;;;;;;;9.00;9.00;;;;;6.04;73.84;103349.50;5059484;28;45470;-48
2023/12/18 02:00:00;;;;;;;;;10.00;8.67;;;;;6.04;73.77;103346.84;5060364;28;45473;-49
2023/12/18 02:02:26;;;;;;;;;13.33;13.33;;;;;6.01;73.57;103347.72;5064699;28;45538;-48
2023/12/18 02:04:51;;;;;;;;;12.33;7.33;;;;;5.96;73.88;103349.38;5060118;28;71240;-48
2023/12/18 02:07:16;;;;;;;;;17.67;12.33;;;;;5.90;73.22;103336.97;5059789;28;70391;-48
2023/12/18 02:09:42;;;;;;;;;11.00;10.00;;;;;5.85;73.51;103346.63;5059812;28;69221;-49
2023/12/18 02:12:08;;;;;;;;;9.33;8.00;;;;;5.82;73.55;103349.22;5063730;28;45482;-47
2023/12/18 02:14:33;;;;;;;;;15.00;9.67;;;;;5.85;74.07;103341.34;5059650;28;67640;-48
2023/12/18 02:16:58;;;;;;;;;16.00;11.00;;;;;5.89;73.75;103345.81;5059771;28;74389;-47
2023/12/18 02:19:28;;;;;;;;;10.67;10.67;;;;;5.93;73.82;103346.69;5067714;28;72677;-47
2023/12/18 02:21:54;;;;;;;;;13.00;7.33;;;;;5.89;73.36;103344.91;5063800;28;45331;-48
2023/12/18 02:24:19;;;;;;;;;13.00;10.00;;;;;5.79;73.20;103343.94;5059682;28;69999;-47
2023/12/18 02:26:46;;;;;;;;;13.33;10.67;;;;;5.76;73.60;103336.84;5060111;28;45331;-48
2023/12/18 02:29:12;;;;;;;;;8.67;8.67;;;;;5.75;73.93;103335.09;5063528;28;45414;-48
2023/12/18 02:31:37;;;;;;;;;14.33;13.00;;;;;5.74;73.92;103332.44;5063616;28;45332;-47
2023/12/18 02:34:02;;;;;;;;;11.33;11.33;;;;;5.66;74.59;103329.69;5056628;28;45643;-47
2023/12/18 02:36:28;;;;;;;;;10.00;10.00;;;;;5.66;74.75;103334.09;5058089;28;45413;-49
2023/12/18 02:38:54;;;;;;;;;12.00;10.00;;;;;5.69;74.34;103328.84;5058445;28;46112;-49
2023/12/18 02:41:19;;;;;;;;;19.33;11.33;;;;;5.73;74.47;103330.66;5058954;28;67969;-47
2023/12/18 02:43:44;;;;;;;;;11.00;9.00;;;;;5.72;74.85;103334.16;5057429;28;70020;-48
2023/12/18 02:46:10;;;;;;;;;15.33;12.33;;;;;5.71;74.72;103338.56;5060134;28;51527;-47
2023/12/18 02:48:35;;;;;;;;;8.33;7.33;;;;;5.69;74.43;103334.13;5059143;28;69421;-47
2023/12/18 02:51:02;;;;;;;;;13.00;10.00;;;;;5.72;74.77;103339.44;5058851;28;53820;-49
2023/12/18 02:53:28;;;;;;;;;13.33;12.00;;;;;5.74;73.95;103333.31;5059783;28;45627;-47
2023/12/18 02:55:53;;;;;;;;;8.00;8.00;;;;;5.75;74.40;103339.47;5058790;28;45398;-47
2023/12/18 02:58:21;;;;;;;;;12.33;8.33;;;;;5.78;74.06;103334.22;5058469;28;73343;-51
2023/12/18 03:00:47;;;;;;;;;9.33;8.67;;;;;5.82;74.36;103336.03;5060763;28;45796;-47
2023/12/18 03:03:12;;;;;;;;;7.00;5.67;;;;;5.84;74.49;103328.13;5059586;28;45503;-47
2023/12/18 03:05:37;;;;;;;;;9.00;6.33;;;;;5.88;74.42;103332.56;5059473;28;71734;-47
2023/12/18 03:08:03;;;;;;;;;13.33;11.33;;;;;5.90;73.95;103328.19;5059011;28;67538;-47
2023/12/18 03:10:29;;;;;;;;;13.67;11.67;;;;;5.91;73.91;103332.59;5061505;28;45417;-47
2023/12/18 03:12:54;;;;;;;;;13.00;10.00;;;;;5.89;74.32;103329.03;5062716;27;45454;-47
2023/12/18 03:15:20;;;;;;;;;10.00;9.00;;;;;5.89;74.24;103340.53;5059468;28;46096;-48
2023/12/18 03:17:45;;;;;;;;;12.00;12.00;;;;;5.89;74.13;103335.22;5060755;28;45461;-48
2023/12/18 03:20:10;;;;;;;;;12.33;9.00;;;;;5.87;73.74;103346.66;5057927;28;61454;-48
2023/12/18 03:22:36;;;;;;;;;16.33;11.33;;;;;5.84;73.78;103339.59;5057386;28;45346;-48
2023/12/18 03:25:02;;;;;;;;;14.00;11.67;;;;;5.75;73.96;103335.09;5057916;28;75679;-49
2023/12/18 03:27:27;;;;;;;;;6.33;3.33;;;;;5.66;74.30;103336.72;5059607;28;45508;-48
2023/12/18 03:29:52;;;;;;;;;17.00;11.33;;;;;5.58;74.47;103331.34;5059561;28;67534;-48
2023/12/18 03:32:18;;;;;;;;;12.33;8.33;;;;;5.58;74.50;103328.72;5058585;28;70430;-47
2023/12/18 03:34:43;;;;;;;;;16.00;13.33;;;;;5.60;74.70;103325.22;5057165;28;45573;-48
2023/12/18 03:37:08;;;;;;;;;10.00;10.00;;;;;5.59;75.08;103327.84;5059348;28;49010;-48
2023/12/18 03:39:34;;;;;;;;;8.00;8.00;;;;;5.58;75.05;103321.69;5063037;28;61451;-48
2023/12/18 03:41:59;;;;;;;;;10.00;9.67;;;;;5.61;75.03;103323.50;5059751;28;70456;-48
2023/12/18 03:44:24;;;;;;;;;13.33;10.33;;;;;5.58;75.20;103324.34;5056289;28;66872;-47
2023/12/18 03:46:50;;;;;;;;;9.33;8.33;;;;;5.62;74.73;103319.97;5058996;28;45273;-48
2023/12/18 03:49:15;;;;;;;;;8.00;7.00;;;;;5.65;74.98;103325.28;5058089;28;68332;-48
2023/12/18 03:51:41;;;;;;;;;12.33;9.33;;;;;5.67;75.16;103323.56;5060146;28;45335;-47
2023/12/18 03:54:06;;;;;;;;;13.67;11.00;;;;;5.68;74.88;103327.06;5057308;28;46293;-48
2023/12/18 03:56:31;;;;;;;;;11.67;11.33;;;;;5.69;75.03;103326.22;5059241;28;45450;-48
2023/12/18 03:58:57;;;;;;;;;11.33;9.67;;;;;5.71;75.35;103332.38;5058643;28;65523;-48
2023/12/18 04:01:22;;;;;;;;;12.00;11.00;;;;;5.70;75.43;103328.88;5059135;28;51759;-47
2023/12/18 04:03:47;;;;;;;;;14.33;10.67;;;;;5.71;74.68;103332.38;5058643;28;55099;-47
2023/12/18 04:06:13;;;;;;;;;12.33;11.67;;;;;5.72;74.71;103329.78;5056998;28;72987;-47
2023/12/18 04:08:39;;;;;;;;;12.00;10.67;;;;;5.74;75.25;103333.31;5063583;27;62604;-47
2023/12/18 04:11:05;;;;;;;;;12.67;10.33;;;;;5.78;75.16;103331.59;5071834;27;45612;-47
2023/12/18 04:13:30;;;;;;;;;6.00;4.33;;;;;5.82;74.81;103322.81;5056996;28;46913;-47
2023/12/18 04:15:55;;;;;;;;;12.67;11.00;;;;;5.84;75.05;103325.47;5060062;28;57001;-48
2023/12/18 04:18:21;;;;;;;;;15.00;10.33;;;;;5.84;74.65;103329.03;5062732;27;66539;-48
2023/12/18 04:20:46;;;;;;;;;10.00;10.00;;;;;5.82;74.46;103325.47;5059172;28;70495;-47
2023/12/18 04:23:11;;;;;;;;;12.00;11.67;;;;;5.81;74.63;103323.69;5059765;28;60970;-49
2023/12/18 04:25:37;;;;;;;;;11.67;11.00;;;;;5.76;74.99;103331.56;5055864;28;45500;-47
2023/12/18 04:28:02;;;;;;;;;12.33;11.00;;;;;5.71;74.62;103324.44;5091374;27;45336;-47
2023/12/18 04:30:28;;;;;;;;;12.33;9.00;;;;;5.67;75.19;103318.28;5060553;28;45488;-49
2023/12/18 04:32:53;;;;;;;;;19.67;13.00;;;;;5.60;75.04;103319.94;5058577;28;75101;-48
2023/12/18 04:35:18;;;;;;;;;16.00;12.67;;;;;5.47;75.25;103324.22;5057930;28;51246;-47
2023/12/18 04:37:45;;;;;;;;;12.33;9.67;;;;;5.42;76.04;103320.66;5057289;28;45333;-49
2023/12/18 04:40:10;;;;;;;;;14.67;8.67;;;;;5.43;75.53;103319.75;5058756;28;45339;-47
2023/12/18 04:42:36;;;;;;;;;10.67;10.33;;;;;5.48;76.00;103325.09;5056683;28;45236;-47
2023/12/18 04:45:01;;;;;;;;;5.00;2.00;;;;;5.46;75.73;103325.09;5057874;28;69553;-46
2023/12/18 04:47:26;;;;;;;;;17.00;13.00;;;;;5.41;75.20;103324.16;5057736;28;65369;-46
2023/12/18 04:49:52;;;;;;;;;10.67;9.00;;;;;5.38;75.80;103320.56;5057255;28;68015;-47
2023/12/18 04:52:17;;;;;;;;;13.33;8.67;;;;;5.38;75.57;103323.22;5063198;28;73691;-48
2023/12/18 04:54:42;;;;;;;;;16.00;11.67;;;;;5.39;75.24;103319.72;5058489;28;45443;-48
2023/12/18 04:57:07;;;;;;;;;12.00;10.67;;;;;5.42;75.39;103323.28;5059461;28;68503;-47
2023/12/18 04:59:33;;;;;;;;;14.67;10.67;;;;;5.47;75.43;103328.59;5055667;28;70452;-47
2023/12/18 05:01:58;;;;;;;;;13.33;11.33;;;;;5.52;75.40;103329.53;5066659;27;74623;-48
2023/12/18 05:04:24;;;;;;;;;18.33;12.00;;;;;5.56;75.16;103322.53;5058196;27;71141;-48
2023/12/18 05:06:49;;;;;;;;;10.33;10.33;;;;;5.53;75.32;103326.03;5058740;28;45203;-48
2023/12/18 05:09:14;;;;;;;;;12.33;9.67;;;;;5.53;75.10;103333.97;5065154;28;70632;-48
2023/12/18 05:11:40;;;;;;;;;10.00;8.67;;;;;5.55;75.04;103324.28;5062046;28;45444;-47
2023/12/18 05:14:05;;;;;;;;;5.00;5.00;;;;;5.57;75.42;103319.91;5058601;28;45531;-49
2023/12/18 05:16:30;;;;;;;;;15.67;10.67;;;;;5.59;75.22;103315.56;5060188;27;66109;-47
2023/12/18 05:18:56;;;;;;;;;8.67;8.67;;;;;5.59;74.47;103312.91;5057085;28;63552;-47
2023/12/18 05:21:22;;;;;;;;;9.67;8.33;;;;;5.58;74.75;103312.88;5051415;28;46006;-47
2023/12/18 05:23:49;;;;;;;;;6.67;6.33;;;;;5.58;74.99;103308.50;5056826;28;73112;-47
2023/12/18 05:26:15;;;;;;;;;8.00;4.00;;;;;5.54;74.29;103311.06;5058015;28;45311;-47
2023/12/18 05:28:40;;;;;;;;;9.67;9.33;;;;;5.52;74.84;103311.06;5054060;28;45461;-47
2023/12/18 05:31:09;;;;;;;;;10.00;7.67;;;;;5.51;74.94;103311.03;5082430;27;75956;-47
2023/12/18 05:33:34;;;;;;;;;9.33;8.33;;;;;5.54;74.83;103319.91;5080093;27;45489;-48
2023/12/18 05:36:00;;;;;;;;;10.33;10.00;;;;;5.54;74.99;103319.91;5058473;28;45454;-47
2023/12/18 05:38:25;;;;;;;;;12.33;7.67;;;;;5.55;74.63;103329.56;5054619;28;45552;-48
2023/12/18 05:40:50;;;;;;;;;9.67;9.67;;;;;5.57;75.10;103324.31;5063276;28;74335;-47
2023/12/18 05:43:16;;;;;;;;;10.00;9.00;;;;;5.55;74.66;103324.28;5058461;27;48735;-47
2023/12/18 05:45:41;;;;;;;;;18.67;12.00;;;;;5.56;74.40;103325.19;5059627;28;65093;-48
2023/12/18 05:48:06;;;;;;;;;15.33;6.33;;;;;5.55;74.48;103328.69;5055732;28;58332;-47
2023/12/18 05:50:32;;;;;;;;;9.67;7.67;;;;;5.56;74.64;103315.50;5058738;28;47029;-48
2023/12/18 05:52:57;;;;;;;;;10.00;8.00;;;;;5.58;74.57;103320.78;5057478;28;45447;-48
2023/12/18 05:55:23;;;;;;;;;11.33;11.00;;;;;5.58;74.49;103303.22;5056522;28;66846;-47
2023/12/18 05:57:48;;;;;;;;;9.33;7.67;;;;;5.58;74.15;103307.59;5058090;28;45624;-48
2023/12/18 06:00:14;;;;;;;;;12.00;10.33;;;;;5.57;73.71;103312.00;5059748;28;75095;-49
2023/12/18 06:02:39;;;;;;;;;9.67;7.33;;;;;5.56;74.40;103309.34;5057437;27;45752;-48
2023/12/18 06:05:07;;;;;;;;;8.67;5.67;;;;;5.52;74.27;103303.13;5057184;28;45379;-48
2023/12/18 06:07:32;;;;;;;;;20.67;14.33;;;;;5.51;74.44;103306.63;5056524;28;45501;-49
2023/12/18 06:09:57;;;;;;;;;13.00;8.67;;;;;5.47;74.27;103311.03;5055166;28;74028;-47
2023/12/18 06:12:22;;;;;;;;;9.67;7.67;;;;;5.39;73.98;103307.38;5059170;28;73253;-48
2023/12/18 06:14:48;;;;;;;;;17.33;13.00;;;;;5.32;74.26;103312.56;5059920;28;68330;-47
2023/12/18 06:17:13;;;;;;;;;15.00;10.33;;;;;5.30;74.40;103310.78;5059537;28;68703;-47
2023/12/18 06:19:39;;;;;;;;;14.00;9.00;;;;;5.32;74.36;103320.50;5057253;28;47288;-47
2023/12/18 06:22:05;;;;;;;;;11.67;8.67;;;;;5.30;74.75;103318.72;5091875;27;45527;-49
2023/12/18 06:24:30;;;;;;;;;16.00;12.33;;;;;5.28;75.04;103324.88;5062013;28;45773;-48
2023/12/18 06:26:56;;;;;;;;;13.00;9.33;;;;;5.27;74.72;103323.09;5060211;28;56751;-49
2023/12/18 06:29:22;;;;;;;;;12.33;9.33;;;;;5.26;75.03;103332.75;5060019;28;45688;-48
2023/12/18 06:31:48;;;;;;;;;11.67;9.67;;;;;5.24;74.77;103323.94;5083674;27;45347;-50
2023/12/18 06:34:13;;;;;;;;;16.33;12.00;;;;;5.26;75.37;103332.75;5059064;28;45686;-51
2023/12/18 06:36:39;;;;;;;;;11.00;9.00;;;;;5.28;75.36;103335.44;5060513;28;45427;-47
2023/12/18 06:39:04;;;;;;;;;13.67;9.33;;;;;5.28;75.24;103336.31;5059658;28;69487;-50
2023/12/18 06:41:29;;;;;;;;;9.00;9.00;;;;;5.24;75.22;103334.50;5056355;28;69534;-47
2023/12/18 06:43:55;;;;;;;;;16.67;14.33;;;;;5.18;75.10;103333.53;5059303;28;45416;-49
2023/12/18 06:46:21;;;;;;;;;14.67;12.00;;;;;5.02;75.33;103332.41;5056931;28;45561;-48
2023/12/18 06:48:46;;;;;;;;;10.00;7.00;;;;;4.96;75.73;103336.75;5060592;28;45599;-49
2023/12/18 06:51:11;;;;;;;;;12.00;10.67;;;;;5.02;76.17;103330.69;5058914;28;45409;-47
2023/12/18 06:53:37;;;;;;;;;10.00;10.00;;;;;5.06;75.76;103328.94;5058547;28;60078;-47
2023/12/18 06:56:03;;;;;;;;;15.67;10.33;;;;;5.05;75.97;103338.63;5091130;27;45483;-47
2023/12/18 06:58:29;;;;;;;;;14.33;10.00;;;;;5.04;75.89;103339.50;5059519;28;45275;-50
2023/12/18 07:00:54;;;;;;;;;11.00;9.00;;;;;5.08;76.04;103332.50;5060095;28;57027;-48
2023/12/18 07:03:19;;;;;;;;;16.67;15.00;;;;;5.12;75.79;103339.59;5058908;28;45580;-50
2023/12/18 07:05:45;;;;;;;;;16.67;15.00;;;;;5.15;76.00;103342.28;5059277;28;63579;-48
2023/12/18 07:08:10;;;;;;;;;11.00;10.00;;;;;5.20;76.14;103342.34;5054202;28;58945;-50
2023/12/18 07:10:36;;;;;;;;;11.67;10.67;;;;;5.24;76.18;103349.44;5058469;28;71122;-47
2023/12/18 07:13:01;;;;;;;;;9.33;9.33;;;;;5.18;75.73;103350.25;5057177;28;45313;-50
2023/12/18 07:15:26;;;;;;;;;15.00;11.00;;;;;5.16;76.09;103351.09;5058159;28;65974;-49
2023/12/18 07:17:52;;;;;;;;;16.67;13.67;;;;;5.18;75.36;103349.38;5058553;28;75661;-48
2023/12/18 07:20:17;;;;;;;;;14.00;14.00;;;;;5.18;75.26;103363.44;5059439;28;45536;-49
2023/12/18 07:22:43;;;;;;;;;11.67;10.00;;;;;5.17;75.33;103363.41;5054014;28;59967;-48
2023/12/18 07:25:11;;;;;;;;;11.67;11.67;;;;;5.12;75.18;103363.34;5056955;28;65119;-48
2023/12/18 07:27:36;;;;;;;;;15.00;10.00;;;;;5.06;74.84;103357.97;5058709;28;45620;-49
2023/12/18 07:30:05;;;;;;;;;17.00;11.33;;;;;5.01;74.92;103364.97;5058709;28;45613;-48
2023/12/18 07:32:31;;;;;;;;;11.00;11.00;;;;;4.97;74.87;103366.66;5084674;27;45597;-48
2023/12/18 07:34:59;;;;;;;;;16.67;14.33;;;;;4.96;75.33;103375.44;5054687;28;45376;-49
2023/12/18 07:37:25;;;;;;;;;11.33;11.33;;;;;4.95;75.28;103365.75;5047644;28;46144;-47
2023/12/18 07:39:51;;;;;;;;;14.33;10.33;;;;;4.95;74.81;103368.38;5058044;28;45457;-48
2023/12/18 07:42:16;;;;;;;;;12.00;8.67;;;;;4.93;74.46;103371.00;5059166;28;45342;-51
2023/12/18 07:44:41;;;;;;;;;12.00;10.00;;;;;4.93;74.71;103378.91;5055745;28;68672;-50
2023/12/18 07:47:07;;;;;;;;;12.00;9.67;;;;;4.92;75.20;103379.78;5058093;28;75582;-51
2023/12/18 07:49:35;;;;;;;;;11.33;11.00;;;;;4.93;74.73;103370.13;5058814;28;45402;-49
2023/12/18 07:52:00;;;;;;;;;10.00;10.00;;;;;4.93;74.72;103380.69;5053941;28;45450;-49
2023/12/18 07:54:25;;;;;;;;;15.00;9.67;;;;;4.93;74.17;103380.69;5054307;28;64573;-48
2023/12/18 07:56:51;;;;;;;;;12.00;10.00;;;;;4.91;74.22;103382.41;5058721;28;72896;-49
2023/12/18 07:59:17;;;;;;;;;9.00;9.00;;;;;4.87;74.11;103388.50;5053928;28;75261;-48
2023/12/18 08:01:42;;;;;;;;;16.33;10.00;;;;;4.77;74.39;103385.72;5059201;28;45332;-48
2023/12/18 08:04:09;;;;;;;;;14.67;9.00;;;;;4.68;73.69;103379.41;5058575;28;45245;-47
2023/12/18 08:06:35;;;;;;;;;7.00;4.33;;;;;4.55;73.59;103379.22;5058560;28;47271;-48
2023/12/18 08:09:00;;;;;;;;;7.67;6.33;;;;;4.50;73.83;103385.25;5058029;28;70731;-48
2023/12/18 08:11:25;;;;;;;;;13.33;9.00;;;;;4.46;73.89;103377.31;5066883;28;60470;-50
2023/12/18 08:13:51;;;;;;;;;13.67;11.00;;;;;4.42;74.04;103383.41;5061286;27;66766;-52
2023/12/18 08:16:17;;;;;;;;;7.67;7.33;;;;;4.37;74.52;103377.16;5061970;28;48850;-51
2023/12/18 08:18:42;;;;;;;;;11.33;8.00;;;;;4.34;74.24;103376.22;5070582;27;45406;-50
2023/12/18 08:21:12;;;;;;;;;10.00;9.67;;;;;4.36;74.42;103377.13;5066505;28;45640;-50
2023/12/18 08:23:38;;;;;;;;;9.00;7.00;;;;;4.37;74.68;103379.78;5061681;28;45731;-52
2023/12/18 08:26:04;;;;;;;;;13.00;13.00;;;;;4.38;74.50;103378.94;5060255;27;46117;-49
2023/12/18 08:28:29;;;;;;;;;12.00;8.33;;;;;4.40;74.76;103377.19;5053129;27;72033;-52
2023/12/18 08:30:54;;;;;;;;;9.33;8.00;;;;;4.43;74.88;103372.00;5057685;28;63141;-51
2023/12/18 08:33:20;;;;;;;;;5.67;5.67;;;;;4.47;74.41;103365.00;5054474;28;69336;-49
2023/12/18 08:35:45;;;;;;;;;9.33;7.67;;;;;4.52;74.57;103367.72;5058006;28;46380;-49
2023/12/18 08:38:11;;;;;;;;;16.00;9.00;;;;;4.55;74.47;103363.41;5051704;28;55208;-51
2023/12/18 08:40:36;;;;;;;;;9.00;8.00;;;;;4.57;74.28;103363.41;5057731;28;45432;-52
2023/12/18 08:43:01;;;;;;;;;9.00;8.67;;;;;4.57;74.22;103364.28;5058315;28;45453;-50
2023/12/18 08:45:27;;;;;;;;;10.00;8.00;;;;;4.59;74.31;103359.06;5056486;28;46183;-50
2023/12/18 08:47:54;;;;;;;;;8.00;8.00;;;;;4.62;74.19;103356.47;5058314;28;45380;-52
2023/12/18 08:50:20;;;;;;;;;7.67;7.33;;;;;4.62;73.61;103360.00;5059064;28;45418;-51
2023/12/18 08:52:45;;;;;;;;;10.00;9.00;;;;;4.67;73.63;103365.34;5059712;28;45508;-53
2023/12/18 08:55:10;;;;;;;;;10.67;9.33;;;;;4.68;73.31;103361.84;5060911;27;75665;-52
2023/12/18 08:57:36;;;;;;;;;11.00;8.33;;;;;4.61;73.16;103371.38;5055914;28;45466;-49
2023/12/18 09:00:01;;;;;;;;;16.67;10.00;;;;;4.56;73.43;103364.28;5057848;28;47028;-52
2023/12/18 09:02:26;;;;;;;;;8.33;7.00;;;;;4.52;73.61;103367.72;5057749;28;45537;-50
2023/12/18 09:04:52;;;;;;;;;6.33;5.33;;;;;4.54;73.29;103371.28;5057596;28;54392;-53
2023/12/18 09:07:17;;;;;;;;;8.00;5.00;;;;;4.59;73.39;103361.72;5057829;28;72748;-51
2023/12/18 09:09:43;;;;;;;;;10.67;9.00;;;;;4.66;73.89;103360.94;5061290;28;45462;-53
2023/12/18 09:12:09;;;;;;;;;9.00;8.67;;;;;4.68;73.39;103358.31;5061358;28;45382;-53
2023/12/18 09:14:35;;;;;;;;;5.00;5.00;;;;;4.71;73.42;103353.09;5056673;28;48732;-52
2023/12/18 09:17:00;;;;;;;;;13.33;9.67;;;;;4.74;73.19;103363.69;5063053;28;45430;-50
2023/12/18 09:19:26;;;;;;;;;6.00;3.00;;;;;4.74;73.14;103351.38;5053493;28;55409;-51
2023/12/18 09:21:52;;;;;;;;;7.33;6.67;;;;;4.77;72.75;103358.44;5079608;27;45378;-54
2023/12/18 09:24:17;;;;;;;;;9.67;8.00;;;;;4.81;72.82;103360.28;5057459;28;53329;-53
2023/12/18 09:26:43;;;;;;;;;12.00;9.67;;;;;4.86;72.60;103361.22;5056247;28;71793;-53
2023/12/18 09:29:09;;;;;;;;;7.33;7.33;;;;;4.86;72.41;103358.56;5057501;28;45556;-53
2023/12/18 09:31:34;;;;;;;;;9.00;8.00;;;;;4.84;72.02;103372.59;5065633;28;45213;-54
2023/12/18 09:34:00;;;;;;;;;15.00;14.00;;;;;4.85;71.99;103375.28;5057733;27;69837;-50
2023/12/18 09:36:25;;;;;;;;;11.33;9.33;;;;;4.90;71.96;103370.06;5057542;28;45428;-49
2023/12/18 09:38:50;;;;;;;;;11.33;9.00;;;;;4.93;71.78;103363.09;5063329;28;45516;-50
2023/12/18 09:41:23;;;;;;;;;9.00;7.00;;;;;4.97;72.00;103364.91;5056477;28;65699;-50
2023/12/18 09:43:50;;;;;;;;;10.67;10.67;;;;;5.00;71.80;103357.91;5057664;28;46199;-50
2023/12/18 09:46:16;;;;;;;;;15.33;10.00;;;;;4.96;71.01;103364.88;5093504;27;45291;-50
2023/12/18 09:48:42;;;;;;;;;17.33;13.33;;;;;4.95;70.97;103373.66;5064922;28;45750;-52
2023/12/18 09:51:11;;;;;;;;;13.33;10.67;;;;;4.90;71.39;103375.34;5061406;28;46367;-50
2023/12/18 09:53:36;;;;;;;;;10.67;9.00;;;;;4.86;71.79;103377.03;5059803;28;45688;-54
2023/12/18 09:56:02;;;;;;;;;14.33;10.00;;;;;4.82;71.33;103375.22;5059730;28;45327;-50
2023/12/18 09:58:27;;;;;;;;;14.67;14.33;;;;;4.78;71.41;103382.22;5060793;28;45288;-53
2023/12/18 10:00:53;;;;;;;;;11.33;10.00;;;;;4.75;71.09;103379.53;5059932;28;45233;-53
2023/12/18 10:03:18;;;;;;;;;10.67;8.33;;;;;4.76;71.42;103381.31;5057934;28;75252;-50
2023/12/18 10:05:45;;;;;;;;;12.67;9.00;;;;;4.76;71.12;103375.16;5061163;28;45698;-53
2023/12/18 10:08:10;;;;;;;;;15.00;14.33;;;;;4.72;70.87;103378.59;5060810;28;45451;-52
2023/12/18 10:10:36;;;;;;;;;12.33;9.00;;;;;4.70;71.18;103377.69;5093676;27;45349;-53
2023/12/18 10:13:05;;;;;;;;;12.33;9.00;;;;;4.73;71.07;103364.53;5060927;28;46391;-51
2023/12/18 10:15:32;;;;;;;;;13.00;8.67;;;;;4.73;71.24;103362.81;5093705;27;45442;-51
2023/12/18 10:17:57;;;;;;;;;5.00;5.00;;;;;4.75;71.46;103357.56;5060956;28;45423;-53
2023/12/18 10:20:23;;;;;;;;;15.33;11.33;;;;;4.79;70.87;103362.00;5060015;28;70403;-52
2023/12/18 10:22:48;;;;;;;;;13.33;10.67;;;;;4.80;71.49;103359.38;5060562;28;45396;-51
2023/12/18 10:25:14;;;;;;;;;10.33;9.67;;;;;4.77;71.24;103353.16;5071140;28;62451;-53
2023/12/18 10:27:39;;;;;;;;;11.33;9.00;;;;;4.74;70.75;103356.66;5048929;27;45436;-53
2023/12/18 10:30:06;;;;;;;;;10.33;5.00;;;;;4.76;70.62;103356.69;5100098;27;45489;-54
2023/12/18 10:32:35;;;;;;;;;8.33;7.67;;;;;4.80;70.32;103361.16;5059699;28;46545;-51
2023/12/18 10:35:01;;;;;;;;;11.00;9.33;;;;;4.80;70.72;103363.78;5096959;27;45562;-55
2023/12/18 10:37:29;;;;;;;;;11.33;11.33;;;;;4.75;70.97;103352.28;5043374;28;46099;-53
2023/12/18 10:40:04;;;;;;;;;7.67;7.33;;;;;4.69;70.50;103360.97;5065399;28;45365;-53
2023/12/18 10:42:36;;;;;;;;;9.67;9.33;;;;;4.63;70.39;103366.16;5058982;28;45347;-54
2023/12/18 10:45:08;;;;;;;;;10.33;8.33;;;;;4.64;70.96;103362.63;5076852;27;45801;-54
2023/12/18 10:47:34;;;;;;;;;12.33;10.67;;;;;4.67;70.67;103362.72;5061307;28;45371;-54
2023/12/18 10:50:01;;;;;;;;;12.00;9.33;;;;;4.68;70.58;103363.59;5060646;28;44900;-53
2023/12/18 10:52:31;;;;;;;;;9.00;9.00;;;;;4.67;70.42;103353.91;5092473;27;46036;-53
2023/12/18 10:55:00;;;;;;;;;2.00;2.00;;;;;4.66;70.26;103360.06;5064445;28;46578;-51
2023/12/18 10:57:26;;;;;;;;;10.00;10.00;;;;;4.64;70.26;103362.63;5058678;28;45286;-52
2023/12/18 10:59:52;;;;;;;;;13.00;12.67;;;;;4.64;70.15;103355.63;5066041;28;45537;-51
2023/12/18 11:02:18;;;;;;;;;8.00;8.00;;;;;4.63;70.17;103358.25;5071240;28;45421;-54
2023/12/18 11:04:46;;;;;;;;;14.67;9.00;;;;;4.61;70.18;103357.34;5061035;28;45456;-54
2023/12/18 11:07:13;;;;;;;;;14.33;13.33;;;;;4.60;70.20;103364.38;5079387;27;45641;-51
2023/12/18 11:09:39;;;;;;;;;8.33;8.33;;;;;4.55;70.17;103359.88;5058791;28;45541;-54
2023/12/18 11:12:05;;;;;;;;;12.00;9.67;;;;;4.54;69.94;103368.66;5059694;28;63685;-54
2023/12/18 11:14:46;;;;;;;;;7.00;5.00;;;;;4.55;70.50;103373.94;5059923;28;45308;-53
2023/12/18 11:17:39;;;;;;;;;10.00;9.00;;;;;4.58;70.06;103370.47;5052853;28;45305;-53